TimeMST,TemperatureF,Dew PointF,Humidity,Sea Level PressureIn,VisibilityMPH,Wind Direction,Wind SpeedMPH,Gust SpeedMPH,PrecipitationIn,Events,Conditions,WindDirDegrees,DateUTC
12:15 AM,23.0,23.0,100,-9999,0.5,North,8.1,16.1,N/A,Snow,Light Snow,360,2012-11-26 07:15:00
12:35 AM,23.0,23.0,100,-9999,0.5,NNE,8.1,-,N/A,Fog,Light Freezing Fog,20,2012-11-26 07:35:00
12:55 AM,23.0,21.2,93,-9999,0.8,North,10.4,-,N/A,,Overcast,10,2012-11-26 07:55:00
1:15 AM,21.2,21.2,100,-9999,0.5,North,8.1,-,N/A,Fog,Light Freezing Fog,10,2012-11-26 08:15:00
1:35 AM,21.2,19.4,93,-9999,0.5,North,9.2,-,N/A,Fog,Light Freezing Fog,10,2012-11-26 08:35:00
1:55 AM,19.4,19.4,100,-9999,4.0,North,11.5,-,N/A,,Overcast,360,2012-11-26 08:55:00
2:15 AM,19.4,19.4,100,-9999,5.0,North,13.8,18.4,N/A,,Overcast,350,2012-11-26 09:15:00
2:35 AM,19.4,19.4,100,-9999,0.8,North,11.5,18.4,N/A,,Overcast,360,2012-11-26 09:35:00
2:55 AM,19.4,17.6,93,-9999,0.2,North,12.7,17.3,N/A,Snow,Light Snow,10,2012-11-26 09:55:00
3:15 AM,19.4,17.6,93,-9999,0.5,North,13.8,17.3,N/A,Fog,Light Freezing Fog,360,2012-11-26 10:15:00
3:35 AM,17.6,17.6,100,-9999,7.0,North,13.8,-,N/A,,Overcast,360,2012-11-26 10:35:00
3:55 AM,17.6,17.6,100,-9999,10.0,North,13.8,18.4,N/A,,Overcast,360,2012-11-26 10:55:00
4:15 AM,17.6,17.6,100,-9999,7.0,North,12.7,-,N/A,Snow,Light Snow,360,2012-11-26 11:15:00
4:35 AM,17.6,17.6,100,-9999,10.0,North,15.0,-,N/A,Snow,Light Snow,350,2012-11-26 11:35:00
5:15 AM,17.6,15.8,93,-9999,10.0,North,11.5,-,N/A,,Overcast,360,2012-11-26 12:15:00
5:35 AM,17.6,17.6,100,-9999,10.0,North,10.4,-,N/A,,Overcast,360,2012-11-26 12:35:00
5:55 AM,17.6,17.6,100,-9999,10.0,North,9.2,-,N/A,,Overcast,10,2012-11-26 12:55:00
6:15 AM,17.6,17.6,100,-9999,10.0,North,10.4,-,N/A,,Overcast,350,2012-11-26 13:15:00
6:35 AM,17.6,15.8,93,-9999,10.0,North,6.9,-,N/A,,Overcast,10,2012-11-26 13:35:00
6:55 AM,17.6,17.6,100,-9999,10.0,NNE,4.6,-,N/A,,Overcast,20,2012-11-26 13:55:00
7:15 AM,17.6,15.8,93,-9999,10.0,North,4.6,-,N/A,,Overcast,350,2012-11-26 14:15:00
7:35 AM,17.6,17.6,100,-9999,10.0,Calm,Calm,-,N/A,,Overcast,0,2012-11-26 14:35:00
7:55 AM,17.6,17.6,100,-9999,10.0,Calm,Calm,-,N/A,,Overcast,0,2012-11-26 14:55:00
8:15 AM,19.4,17.6,93,-9999,10.0,South,5.8,-,N/A,,Overcast,190,2012-11-26 15:15:00
8:35 AM,19.4,17.6,93,-9999,10.0,South,8.1,-,N/A,,Overcast,190,2012-11-26 15:35:00
8:55 AM,19.4,17.6,93,-9999,10.0,South,12.7,-,N/A,,Overcast,170,2012-11-26 15:55:00
9:15 AM,19.4,17.6,93,-9999,2.5,South,11.5,19.6,N/A,,Overcast,190,2012-11-26 16:15:00
9:35 AM,19.4,17.6,93,-9999,5.0,South,13.8,19.6,N/A,,Overcast,190,2012-11-26 16:35:00
10:15 AM,21.2,19.4,93,-9999,10.0,SSW,9.2,18.4,N/A,,Overcast,200,2012-11-26 17:15:00
10:35 AM,21.2,19.4,93,-9999,10.0,SW,12.7,19.6,N/A,,Mostly Cloudy,220,2012-11-26 17:35:00
10:55 AM,21.2,19.4,93,-9999,10.0,SW,13.8,-,N/A,,Scattered Clouds,230,2012-11-26 17:55:00
11:15 AM,21.2,19.4,93,-9999,10.0,SW,17.3,26.5,N/A,,Scattered Clouds,230,2012-11-26 18:15:00
11:35 AM,23.0,21.2,93,-9999,10.0,SW,18.4,25.3,N/A,,Clear,220,2012-11-26 18:35:00
11:55 AM,23.0,21.2,93,-9999,10.0,WSW,20.7,25.3,N/A,,Clear,240,2012-11-26 18:55:00
12:15 PM,24.8,21.2,86,-9999,10.0,WSW,18.4,26.5,N/A,,Clear,240,2012-11-26 19:15:00
12:35 PM,28.4,19.4,69,-9999,10.0,WSW,15.0,20.7,N/A,,Clear,240,2012-11-26 19:35:00
12:55 PM,28.4,19.4,69,-9999,10.0,WSW,17.3,21.9,N/A,,Clear,250,2012-11-26 19:55:00
1:15 PM,28.4,19.4,69,-9999,10.0,WSW,19.6,26.5,N/A,,Clear,240,2012-11-26 20:15:00
1:35 PM,28.4,19.4,69,-9999,10.0,SW,18.4,-,N/A,,Clear,230,2012-11-26 20:35:00
1:55 PM,28.4,19.4,69,-9999,10.0,SW,17.3,-,N/A,,Clear,230,2012-11-26 20:55:00
2:15 PM,28.4,19.4,69,-9999,10.0,WSW,19.6,-,N/A,,Clear,240,2012-11-26 21:15:00
2:35 PM,28.4,19.4,69,-9999,10.0,SW,17.3,-,N/A,,Clear,230,2012-11-26 21:35:00
3:15 PM,28.4,19.4,69,-9999,10.0,SW,15.0,-,N/A,,Clear,230,2012-11-26 22:15:00
3:35 PM,28.4,17.6,64,-9999,10.0,SW,15.0,20.7,N/A,,Clear,230,2012-11-26 22:35:00
3:55 PM,28.4,17.6,64,-9999,10.0,WSW,15.0,19.6,N/A,,Clear,240,2012-11-26 22:55:00
4:15 PM,28.4,17.6,64,30.07,10.0,WSW,17.3,21.9,N/A,,Clear,250,2012-11-26 23:15:00
4:35 PM,26.6,17.6,69,-9999,10.0,WSW,16.1,23.0,N/A,,Clear,240,2012-11-26 23:35:00
4:55 PM,26.6,17.6,69,-9999,10.0,WSW,16.1,-,N/A,,Clear,250,2012-11-26 23:55:00
5:15 PM,24.8,17.6,74,-9999,10.0,WSW,15.0,21.9,N/A,,Clear,250,2012-11-27 00:15:00
5:35 PM,23.0,17.6,80,-9999,10.0,WSW,15.0,-,N/A,,Clear,250,2012-11-27 00:35:00
5:55 PM,24.8,15.8,69,-9999,10.0,WSW,18.4,-,N/A,,Clear,250,2012-11-27 00:55:00
6:15 PM,26.6,12.2,55,-9999,10.0,WSW,18.4,-,N/A,,Clear,250,2012-11-27 01:15:00
6:35 PM,28.4,8.6,43,-9999,10.0,WSW,19.6,-,N/A,,Clear,250,2012-11-27 01:35:00
7:15 PM,28.4,1.4,31,-9999,10.0,WSW,19.6,-,N/A,,Clear,250,2012-11-27 02:15:00
7:35 PM,30.2,-0.4,27,-9999,10.0,WSW,18.4,25.3,N/A,,Clear,250,2012-11-27 02:35:00
8:15 PM,26.6,3.2,37,-9999,10.0,WSW,12.7,-,N/A,,Clear,250,2012-11-27 03:15:00
8:35 PM,28.4,1.4,31,-9999,10.0,WSW,11.5,19.6,N/A,,Clear,250,2012-11-27 03:35:00
8:55 PM,24.8,1.4,36,-9999,10.0,WSW,12.7,16.1,N/A,,Clear,250,2012-11-27 03:55:00
9:15 PM,23.0,3.2,43,-9999,10.0,WSW,13.8,-,N/A,,Clear,250,2012-11-27 04:15:00
9:55 PM,28.4,-4.0,25,-9999,10.0,WSW,13.8,-,N/A,,Clear,250,2012-11-27 04:55:00
10:15 PM,26.6,-0.4,31,30.11,10.0,WSW,10.4,-,N/A,,Clear,250,2012-11-27 05:15:00
10:35 PM,24.8,-0.4,34,-9999,10.0,West,6.9,-,N/A,,Clear,260,2012-11-27 05:35:00
11:15 PM,23.0,1.4,39,-9999,10.0,WSW,6.9,-,N/A,,Clear,240,2012-11-27 06:15:00
11:35 PM,23.0,1.4,39,-9999,10.0,WSW,8.1,-,N/A,,Clear,250,2012-11-27 06:35:00
11:55 PM,21.2,5.0,50,-9999,10.0,WSW,15.0,-,N/A,,Clear,250,2012-11-27 06:55:00